Terminal Aerodrome Forecast
Issued by NWS

Home | Current Version | Previous Version | Graphics & Text | Print | Product List | Glossary On
Versions: 1 2 3 4 5 6 7 8 9 10 11 12 13
000
FTUS43 KMPX 211136
TAFAXN
TAF
KAXN 211136Z 2112/2212 35014G20KT P6SM SCT030 SCT250
     FM220000 02010KT P6SM SCT250
     FM220400 07008KT P6SM SCT250
     FM220900 11007KT P6SM SCT250=

USA.gov is the U.S. government's official web portal to all federal, state and local government web resources and services.